sensor_id;sensor_type;location;lat;lon;timestamp;pressure;altitude;pressure_sealevel;temperature;humidity
64862;BME280;62652;42.274;-71.436;2023-03-24T00:00:00;99740.0;;;13.11111111111111;unknown
64862;BME280;62652;42.274;-71.436;2023-03-24T00:01:02;99740.0;;;13.0;unknown
64862;BME280;62652;42.274;-71.436;2023-03-24T00:02:00;99730.0;;;13.11111111111111;unknown
64862;BME280;62652;42.274;-71.436;2023-03-24T00:03:01;99730.0;;;13.11111111111111;unknown
64862;BME280;62652;42.274;-71.436;2023-03-24T00:04:00;99730.0;;;13.11111111111111;unknown
64862;BME280;62652;42.274;-71.436;2023-03-24T00:05:00;99730.0;;;13.0;unknown
64862;BME280;62652;42.274;-71.436;2023-03-24T00:06:02;99740.0;;;13.0;unknown
64862;BME280;62652;42.274;-71.436;2023-03-24T00:07:01;99740.0;;;13.0;unknown
64862;BME280;62652;42.274;-71.436;2023-03-24T00:08:01;99740.0;;;13.0;unknown
64862;BME280;62652;42.274;-71.436;2023-03-24T00:09:01;99740.0;;;13.11111111111111;unknown
64862;BME280;62652;42.274;-71.436;2023-03-24T00:10:01;99740.0;;;13.11111111111111;unknown
64862;BME280;62652;42.274;-71.436;2023-03-24T00:11:03;99730.0;;;13.11111111111111;unknown
64862;BME280;62652;42.274;-71.436;2023-03-24T00:12:01;99730.0;;;13.11111111111111;unknown
64862;BME280;62652;42.274;-71.436;2023-03-24T00:13:01;99740.0;;;13.11111111111111;unknown
64862;BME280;62652;42.274;-71.436;2023-03-24T00:14:00;99740.0;;;13.11111111111111;unknown
64862;BME280;62652;42.274;-71.436;2023-03-24T00:15:01;99730.0;;;13.222222222222221;unknown
64862;BME280;62652;42.274;-71.436;2023-03-24T00:16:00;99740.0;;;13.222222222222221;unknown
64862;BME280;62652;42.274;-71.436;2023-03-24T00:17:00;99740.0;;;13.222222222222221;unknown
64862;BME280;62652;42.274;-71.436;2023-03-24T00:18:01;99750.0;;;13.222222222222221;unknown
64862;BME280;62652;42.274;-71.436;2023-03-24T00:19:00;99750.0;;;13.222222222222221;unknown
64862;BME280;62652;42.274;-71.436;2023-03-24T00:20:02;99760.0;;;13.222222222222221;unknown
64862;BME280;62652;42.274;-71.436;2023-03-24T00:21:00;99760.0;;;13.222222222222221;unknown
64862;BME280;62652;42.274;-71.436;2023-03-24T00:22:00;99760.0;;;13.277777777777779;unknown
64862;BME280;62652;42.274;-71.436;2023-03-24T00:23:01;99760.0;;;13.277777777777779;unknown
64862;BME280;62652;42.274;-71.436;2023-03-24T00:24:01;99760.0;;;13.277777777777779;unknown
64862;BME280;62652;42.274;-71.436;2023-03-24T00:25:01;99760.0;;;13.277777777777779;unknown
64862;BME280;62652;42.274;-71.436;2023-03-24T00:26:03;99760.0;;;13.277777777777779;unknown
64862;BME280;62652;42.274;-71.436;2023-03-24T00:27:00;99770.0;;;13.277777777777779;unknown
64862;BME280;62652;42.274;-71.436;2023-03-24T00:28:02;99780.0;;;13.277777777777779;unknown
64862;BME280;62652;42.274;-71.436;2023-03-24T00:29:00;99770.0;;;13.277777777777779;unknown
64862;BME280;62652;42.274;-71.436;2023-03-24T00:30:00;99770.0;;;13.277777777777779;unknown
64862;BME280;62652;42.274;-71.436;2023-03-24T00:31:01;99760.0;;;13.277777777777779;unknown
64862;BME280;62652;42.274;-71.436;2023-03-24T00:32:01;99760.0;;;13.277777777777779;unknown
64862;BME280;62652;42.274;-71.436;2023-03-24T00:33:00;99760.0;;;13.38888888888889;unknown
64862;BME280;62652;42.274;-71.436;2023-03-24T00:34:01;99770.0;;;13.277777777777779;unknown
64862;BME280;62652;42.274;-71.436;2023-03-24T00:35:00;99770.0;;;13.277777777777779;unknown
64862;BME280;62652;42.274;-71.436;2023-03-24T00:36:02;99760.0;;;13.277777777777779;unknown
64862;BME280;62652;42.274;-71.436;2023-03-24T00:37:01;99760.0;;;13.277777777777779;unknown
64862;BME280;62652;42.274;-71.436;2023-03-24T00:38:00;99760.0;;;13.277777777777779;unknown
64862;BME280;62652;42.274;-71.436;2023-03-24T00:39:02;99750.0;;;13.277777777777779;unknown
64862;BME280;62652;42.274;-71.436;2023-03-24T00:40:00;99760.0;;;13.277777777777779;unknown
64862;BME280;62652;42.274;-71.436;2023-03-24T00:41:01;99760.0;;;13.277777777777779;unknown
64862;BME280;62652;42.274;-71.436;2023-03-24T00:42:01;99760.0;;;13.277777777777779;unknown
64862;BME280;62652;42.274;-71.436;2023-03-24T00:43:01;99770.0;;;13.277777777777779;unknown
64862;BME280;62652;42.274;-71.436;2023-03-24T00:44:00;99770.0;;;13.222222222222221;unknown
64862;BME280;62652;42.274;-71.436;2023-03-24T00:45:01;99770.0;;;13.277777777777779;unknown
64862;BME280;62652;42.274;-71.436;2023-03-24T00:46:02;99770.0;;;13.277777777777779;unknown
64862;BME280;62652;42.274;-71.436;2023-03-24T00:47:01;99780.0;;;13.277777777777779;unknown
64862;BME280;62652;42.274;-71.436;2023-03-24T00:48:00;99780.0;;;13.277777777777779;unknown
64862;BME280;62652;42.274;-71.436;2023-03-24T00:49:02;99780.0;;;13.277777777777779;unknown
64862;BME280;62652;42.274;-71.436;2023-03-24T00:50:01;99780.0;;;13.277777777777779;unknown
64862;BME280;62652;42.274;-71.436;2023-03-24T00:51:01;99780.0;;;13.277777777777779;unknown
64862;BME280;62652;42.274;-71.436;2023-03-24T00:52:00;99770.0;;;13.277777777777779;unknown
64862;BME280;62652;42.274;-71.436;2023-03-24T00:53:01;99770.0;;;13.277777777777779;unknown
64862;BME280;62652;42.274;-71.436;2023-03-24T00:54:01;99770.0;;;13.277777777777779;unknown
64862;BME280;62652;42.274;-71.436;2023-03-24T00:55:02;99770.0;;;13.277777777777779;unknown
64862;BME280;62652;42.274;-71.436;2023-03-24T00:56:01;99780.0;;;13.277777777777779;unknown
64862;BME280;62652;42.274;-71.436;2023-03-24T00:57:01;99780.0;;;13.38888888888889;unknown
64862;BME280;62652;42.274;-71.436;2023-03-24T00:58:01;99780.0;;;13.38888888888889;unknown
64862;BME280;62652;42.274;-71.436;2023-03-24T00:59:01;99780.0;;;13.38888888888889;unknown
64862;BME280;62652;42.274;-71.436;2023-03-24T01:00:03;99770.0;;;13.38888888888889;unknown
64862;BME280;62652;42.274;-71.436;2023-03-24T01:01:01;99770.0;;;13.38888888888889;unknown
64862;BME280;62652;42.274;-71.436;2023-03-24T01:02:00;99770.0;;;13.38888888888889;unknown
64862;BME280;62652;42.274;-71.436;2023-03-24T01:03:00;99770.0;;;13.38888888888889;unknown
64862;BME280;62652;42.274;-71.436;2023-03-24T01:04:01;99760.0;;;13.38888888888889;unknown
64862;BME280;62652;42.274;-71.436;2023-03-24T01:05:00;99770.0;;;13.38888888888889;unknown
64862;BME280;62652;42.274;-71.436;2023-03-24T01:06:01;99770.0;;;13.38888888888889;unknown
64862;BME280;62652;42.274;-71.436;2023-03-24T01:07:01;99770.0;;;13.38888888888889;unknown
64862;BME280;62652;42.274;-71.436;2023-03-24T01:08:01;99780.0;;;13.38888888888889;unknown
64862;BME280;62652;42.274;-71.436;2023-03-24T01:09:00;99780.0;;;13.499999999999998;unknown
64862;BME280;62652;42.274;-71.436;2023-03-24T01:10:01;99780.0;;;13.499999999999998;unknown
64862;BME280;62652;42.274;-71.436;2023-03-24T01:11:00;99770.0;;;13.38888888888889;unknown
64862;BME280;62652;42.274;-71.436;2023-03-24T01:12:01;99770.0;;;13.38888888888889;unknown
64862;BME280;62652;42.274;-71.436;2023-03-24T01:13:01;99770.0;;;13.38888888888889;unknown
64862;BME280;62652;42.274;-71.436;2023-03-24T01:14:00;99770.0;;;13.38888888888889;unknown
64862;BME280;62652;42.274;-71.436;2023-03-24T01:15:05;99770.0;;;13.38888888888889;unknown
64862;BME280;62652;42.274;-71.436;2023-03-24T01:16:01;99780.0;;;13.499999999999998;unknown
64862;BME280;62652;42.274;-71.436;2023-03-24T01:17:01;99780.0;;;13.38888888888889;unknown
64862;BME280;62652;42.274;-71.436;2023-03-24T01:18:01;99780.0;;;13.38888888888889;unknown
64862;BME280;62652;42.274;-71.436;2023-03-24T01:19:01;99790.0;;;13.499999999999998;unknown
64862;BME280;62652;42.274;-71.436;2023-03-24T01:20:01;99790.0;;;13.499999999999998;unknown
64862;BME280;62652;42.274;-71.436;2023-03-24T01:21:00;99800.0;;;13.499999999999998;unknown
64862;BME280;62652;42.274;-71.436;2023-03-24T01:22:01;99800.0;;;13.499999999999998;unknown
64862;BME280;62652;42.274;-71.436;2023-03-24T01:23:02;99800.0;;;13.499999999999998;unknown
64862;BME280;62652;42.274;-71.436;2023-03-24T01:24:00;99800.0;;;13.499999999999998;unknown
64862;BME280;62652;42.274;-71.436;2023-03-24T01:25:01;99800.0;;;13.61111111111111;unknown
64862;BME280;62652;42.274;-71.436;2023-03-24T01:26:05;99790.0;;;13.499999999999998;unknown
64862;BME280;62652;42.274;-71.436;2023-03-24T01:27:01;99800.0;;;13.499999999999998;unknown
64862;BME280;62652;42.274;-71.436;2023-03-24T01:28:01;99800.0;;;13.61111111111111;unknown
64862;BME280;62652;42.274;-71.436;2023-03-24T01:29:01;99800.0;;;13.499999999999998;unknown
64862;BME280;62652;42.274;-71.436;2023-03-24T01:30:01;99800.0;;;13.61111111111111;unknown
64862;BME280;62652;42.274;-71.436;2023-03-24T01:31:00;99800.0;;;13.61111111111111;unknown
64862;BME280;62652;42.274;-71.436;2023-03-24T01:32:00;99810.0;;;13.61111111111111;unknown
64862;BME280;62652;42.274;-71.436;2023-03-24T01:33:01;99810.0;;;13.61111111111111;unknown
64862;BME280;62652;42.274;-71.436;2023-03-24T01:34:01;99810.0;;;13.61111111111111;unknown
64862;BME280;62652;42.274;-71.436;2023-03-24T01:35:00;99810.0;;;13.61111111111111;unknown
64862;BME280;62652;42.274;-71.436;2023-03-24T01:36:01;99810.0;;;13.61111111111111;unknown
64862;BME280;62652;42.274;-71.436;2023-03-24T01:37:01;99820.0;;;13.61111111111111;unknown
64862;BME280;62652;42.274;-71.436;2023-03-24T01:38:03;99820.0;;;13.61111111111111;unknown
64862;BME280;62652;42.274;-71.436;2023-03-24T01:39:01;99820.0;;;13.61111111111111;unknown
64862;BME280;62652;42.274;-71.436;2023-03-24T01:40:01;99830.0;;;13.61111111111111;unknown
64862;BME280;62652;42.274;-71.436;2023-03-24T01:41:01;99830.0;;;13.499999999999998;unknown
64862;BME280;62652;42.274;-71.436;2023-03-24T01:42:00;99840.0;;;13.499999999999998;unknown
64862;BME280;62652;42.274;-71.436;2023-03-24T01:43:01;99850.0;;;13.499999999999998;unknown
64862;BME280;62652;42.274;-71.436;2023-03-24T01:46:07;99860.0;;;13.499999999999998;unknown
64862;BME280;62652;42.274;-71.436;2023-03-24T01:47:02;99870.0;;;13.61111111111111;unknown
64862;BME280;62652;42.274;-71.436;2023-03-24T01:48:01;99870.0;;;13.61111111111111;unknown
64862;BME280;62652;42.274;-71.436;2023-03-24T01:49:04;99870.0;;;13.61111111111111;unknown
64862;BME280;62652;42.274;-71.436;2023-03-24T01:50:01;99860.0;;;13.61111111111111;unknown
64862;BME280;62652;42.274;-71.436;2023-03-24T01:51:05;99860.0;;;13.61111111111111;unknown
64862;BME280;62652;42.274;-71.436;2023-03-24T01:52:04;99860.0;;;13.61111111111111;unknown
64862;BME280;62652;42.274;-71.436;2023-03-24T01:53:01;99870.0;;;13.722222222222223;unknown
64862;BME280;62652;42.274;-71.436;2023-03-24T01:54:04;99870.0;;;13.61111111111111;unknown
64862;BME280;62652;42.274;-71.436;2023-03-24T01:55:04;99890.0;;;13.61111111111111;unknown
64862;BME280;62652;42.274;-71.436;2023-03-24T01:56:02;99890.0;;;13.61111111111111;unknown
64862;BME280;62652;42.274;-71.436;2023-03-24T01:57:02;99900.0;;;13.61111111111111;unknown
64862;BME280;62652;42.274;-71.436;2023-03-24T01:58:02;99890.0;;;13.61111111111111;unknown
64862;BME280;62652;42.274;-71.436;2023-03-24T01:59:04;99890.0;;;13.61111111111111;unknown
64862;BME280;62652;42.274;-71.436;2023-03-24T02:00:07;99900.0;;;13.61111111111111;unknown
64862;BME280;62652;42.274;-71.436;2023-03-24T02:01:02;99890.0;;;13.61111111111111;unknown
64862;BME280;62652;42.274;-71.436;2023-03-24T02:02:02;99900.0;;;13.61111111111111;unknown
64862;BME280;62652;42.274;-71.436;2023-03-24T02:03:05;99900.0;;;13.61111111111111;unknown
64862;BME280;62652;42.274;-71.436;2023-03-24T02:04:04;99900.0;;;13.61111111111111;unknown
64862;BME280;62652;42.274;-71.436;2023-03-24T02:05:03;99900.0;;;13.61111111111111;unknown
64862;BME280;62652;42.274;-71.436;2023-03-24T02:06:01;99900.0;;;13.61111111111111;unknown
64862;BME280;62652;42.274;-71.436;2023-03-24T02:07:06;99890.0;;;13.499999999999998;unknown
64862;BME280;62652;42.274;-71.436;2023-03-24T02:08:05;99880.0;;;13.61111111111111;unknown
64862;BME280;62652;42.274;-71.436;2023-03-24T02:09:01;99870.0;;;13.61111111111111;unknown
64862;BME280;62652;42.274;-71.436;2023-03-24T02:10:03;99860.0;;;13.499999999999998;unknown
64862;BME280;62652;42.274;-71.436;2023-03-24T02:11:01;99850.0;;;13.499999999999998;unknown
64862;BME280;62652;42.274;-71.436;2023-03-24T02:12:00;99840.0;;;13.499999999999998;unknown
64862;BME280;62652;42.274;-71.436;2023-03-24T02:13:01;99840.0;;;13.499999999999998;unknown
64862;BME280;62652;42.274;-71.436;2023-03-24T02:14:01;99830.0;;;13.499999999999998;unknown
64862;BME280;62652;42.274;-71.436;2023-03-24T02:15:01;99830.0;;;13.499999999999998;unknown
64862;BME280;62652;42.274;-71.436;2023-03-24T02:16:16;99830.0;;;13.499999999999998;unknown
64862;BME280;62652;42.274;-71.436;2023-03-24T02:17:14;99830.0;;;13.499999999999998;unknown
64862;BME280;62652;42.274;-71.436;2023-03-24T02:18:06;99830.0;;;13.499999999999998;unknown
64862;BME280;62652;42.274;-71.436;2023-03-24T02:19:18;99810.0;;;13.61111111111111;unknown
64862;BME280;62652;42.274;-71.436;2023-03-24T02:20:19;99810.0;;;13.61111111111111;unknown
64862;BME280;62652;42.274;-71.436;2023-03-24T02:21:19;99810.0;;;13.61111111111111;unknown
64862;BME280;62652;42.274;-71.436;2023-03-24T02:22:18;99810.0;;;13.499999999999998;unknown
64862;BME280;62652;42.274;-71.436;2023-03-24T02:23:17;99820.0;;;13.499999999999998;unknown
64862;BME280;62652;42.274;-71.436;2023-03-24T02:24:18;99810.0;;;13.499999999999998;unknown
64862;BME280;62652;42.274;-71.436;2023-03-24T02:26:17;99820.0;;;13.499999999999998;unknown
64862;BME280;62652;42.274;-71.436;2023-03-24T02:27:06;99820.0;;;13.499999999999998;unknown
64862;BME280;62652;42.274;-71.436;2023-03-24T02:28:08;99830.0;;;13.499999999999998;unknown
64862;BME280;62652;42.274;-71.436;2023-03-24T02:29:14;99840.0;;;13.499999999999998;unknown
64862;BME280;62652;42.274;-71.436;2023-03-24T02:30:17;99850.0;;;13.499999999999998;unknown
64862;BME280;62652;42.274;-71.436;2023-03-24T02:33:18;99860.0;;;13.61111111111111;unknown
64862;BME280;62652;42.274;-71.436;2023-03-24T02:34:15;99860.0;;;13.61111111111111;unknown
64862;BME280;62652;42.274;-71.436;2023-03-24T02:36:16;99840.0;;;13.61111111111111;unknown
64862;BME280;62652;42.274;-71.436;2023-03-24T02:38:15;99840.0;;;13.61111111111111;unknown
64862;BME280;62652;42.274;-71.436;2023-03-24T02:40:09;99850.0;;;13.61111111111111;unknown
64862;BME280;62652;42.274;-71.436;2023-03-24T02:41:05;99850.0;;;13.61111111111111;unknown
64862;BME280;62652;42.274;-71.436;2023-03-24T02:42:08;99850.0;;;13.61111111111111;unknown
64862;BME280;62652;42.274;-71.436;2023-03-24T02:43:09;99840.0;;;13.61111111111111;unknown
64862;BME280;62652;42.274;-71.436;2023-03-24T02:44:07;99830.0;;;13.499999999999998;unknown
64862;BME280;62652;42.274;-71.436;2023-03-24T02:45:07;99830.0;;;13.499999999999998;unknown
64862;BME280;62652;42.274;-71.436;2023-03-24T02:46:09;99840.0;;;13.499999999999998;unknown
64862;BME280;62652;42.274;-71.436;2023-03-24T02:47:04;99850.0;;;13.499999999999998;unknown
64862;BME280;62652;42.274;-71.436;2023-03-24T02:48:05;99860.0;;;13.499999999999998;unknown
64862;BME280;62652;42.274;-71.436;2023-03-24T02:49:09;99860.0;;;13.61111111111111;unknown
64862;BME280;62652;42.274;-71.436;2023-03-24T02:50:05;99860.0;;;13.61111111111111;unknown
64862;BME280;62652;42.274;-71.436;2023-03-24T02:51:06;99850.0;;;13.61111111111111;unknown
64862;BME280;62652;42.274;-71.436;2023-03-24T02:52:05;99840.0;;;13.61111111111111;unknown
64862;BME280;62652;42.274;-71.436;2023-03-24T02:53:07;99840.0;;;13.61111111111111;unknown
64862;BME280;62652;42.274;-71.436;2023-03-24T02:54:08;99830.0;;;13.499999999999998;unknown
64862;BME280;62652;42.274;-71.436;2023-03-24T02:55:04;99840.0;;;13.499999999999998;unknown
64862;BME280;62652;42.274;-71.436;2023-03-24T02:56:07;99850.0;;;13.499999999999998;unknown
64862;BME280;62652;42.274;-71.436;2023-03-24T02:57:05;99860.0;;;13.499999999999998;unknown
64862;BME280;62652;42.274;-71.436;2023-03-24T02:58:03;99850.0;;;13.499999999999998;unknown
64862;BME280;62652;42.274;-71.436;2023-03-24T02:59:02;99850.0;;;13.499999999999998;unknown
64862;BME280;62652;42.274;-71.436;2023-03-24T03:00:07;99850.0;;;13.38888888888889;unknown
64862;BME280;62652;42.274;-71.436;2023-03-24T03:01:05;99860.0;;;13.38888888888889;unknown
64862;BME280;62652;42.274;-71.436;2023-03-24T03:02:03;99870.0;;;13.38888888888889;unknown
64862;BME280;62652;42.274;-71.436;2023-03-24T03:03:05;99860.0;;;13.38888888888889;unknown
64862;BME280;62652;42.274;-71.436;2023-03-24T03:04:04;99860.0;;;13.38888888888889;unknown
64862;BME280;62652;42.274;-71.436;2023-03-24T03:05:04;99870.0;;;13.277777777777779;unknown
64862;BME280;62652;42.274;-71.436;2023-03-24T03:06:03;99880.0;;;13.38888888888889;unknown
64862;BME280;62652;42.274;-71.436;2023-03-24T03:07:04;99890.0;;;13.38888888888889;unknown
64862;BME280;62652;42.274;-71.436;2023-03-24T03:08:04;99870.0;;;13.38888888888889;unknown
64862;BME280;62652;42.274;-71.436;2023-03-24T03:09:05;99870.0;;;13.277777777777779;unknown
64862;BME280;62652;42.274;-71.436;2023-03-24T03:10:05;99870.0;;;13.222222222222221;unknown
64862;BME280;62652;42.274;-71.436;2023-03-24T03:11:03;99870.0;;;13.222222222222221;unknown
64862;BME280;62652;42.274;-71.436;2023-03-24T03:12:04;99860.0;;;13.0;unknown
64862;BME280;62652;42.274;-71.436;2023-03-24T03:13:05;99860.0;;;13.0;unknown
64862;BME280;62652;42.274;-71.436;2023-03-24T03:14:04;99880.0;;;13.0;unknown
64862;BME280;62652;42.274;-71.436;2023-03-24T03:15:03;99870.0;;;13.0;unknown
64862;BME280;62652;42.274;-71.436;2023-03-24T03:16:04;99860.0;;;12.888888888888891;unknown
64862;BME280;62652;42.274;-71.436;2023-03-24T03:17:05;99850.0;;;12.888888888888891;unknown
64862;BME280;62652;42.274;-71.436;2023-03-24T03:18:05;99850.0;;;12.888888888888891;unknown
64862;BME280;62652;42.274;-71.436;2023-03-24T03:19:03;99850.0;;;12.888888888888891;unknown
64862;BME280;62652;42.274;-71.436;2023-03-24T03:20:05;99840.0;;;12.777777777777779;unknown
64862;BME280;62652;42.274;-71.436;2023-03-24T03:21:05;99850.0;;;12.888888888888891;unknown
64862;BME280;62652;42.274;-71.436;2023-03-24T03:22:03;99840.0;;;12.777777777777779;unknown
64862;BME280;62652;42.274;-71.436;2023-03-24T03:23:03;99840.0;;;12.777777777777779;unknown
64862;BME280;62652;42.274;-71.436;2023-03-24T03:24:04;99850.0;;;12.722222222222221;unknown
64862;BME280;62652;42.274;-71.436;2023-03-24T03:25:01;99850.0;;;12.722222222222221;unknown
64862;BME280;62652;42.274;-71.436;2023-03-24T03:26:03;99860.0;;;12.611111111111112;unknown
64862;BME280;62652;42.274;-71.436;2023-03-24T03:27:04;99860.0;;;12.611111111111112;unknown
64862;BME280;62652;42.274;-71.436;2023-03-24T03:28:03;99850.0;;;12.611111111111112;unknown
64862;BME280;62652;42.274;-71.436;2023-03-24T03:29:04;99860.0;;;12.611111111111112;unknown
64862;BME280;62652;42.274;-71.436;2023-03-24T03:30:05;99860.0;;;12.611111111111112;unknown
64862;BME280;62652;42.274;-71.436;2023-03-24T03:31:04;99860.0;;;12.611111111111112;unknown
64862;BME280;62652;42.274;-71.436;2023-03-24T03:32:03;99860.0;;;12.611111111111112;unknown
64862;BME280;62652;42.274;-71.436;2023-03-24T03:33:04;99860.0;;;12.611111111111112;unknown
64862;BME280;62652;42.274;-71.436;2023-03-24T03:34:08;99870.0;;;12.611111111111112;unknown
64862;BME280;62652;42.274;-71.436;2023-03-24T03:35:06;99870.0;;;12.611111111111112;unknown
64862;BME280;62652;42.274;-71.436;2023-03-24T03:36:06;99870.0;;;12.5;unknown
64862;BME280;62652;42.274;-71.436;2023-03-24T03:37:04;99870.0;;;12.5;unknown
64862;BME280;62652;42.274;-71.436;2023-03-24T03:38:12;99860.0;;;12.5;unknown
64862;BME280;62652;42.274;-71.436;2023-03-24T03:39:04;99860.0;;;12.388888888888888;unknown
64862;BME280;62652;42.274;-71.436;2023-03-24T03:40:04;99880.0;;;12.388888888888888;unknown
64862;BME280;62652;42.274;-71.436;2023-03-24T03:41:04;99880.0;;;12.388888888888888;unknown
64862;BME280;62652;42.274;-71.436;2023-03-24T03:42:01;99880.0;;;12.388888888888888;unknown
64862;BME280;62652;42.274;-71.436;2023-03-24T03:43:01;99880.0;;;12.277777777777779;unknown
64862;BME280;62652;42.274;-71.436;2023-03-24T03:44:00;99880.0;;;12.277777777777779;unknown
64862;BME280;62652;42.274;-71.436;2023-03-24T03:45:01;99880.0;;;12.277777777777779;unknown
64862;BME280;62652;42.274;-71.436;2023-03-24T03:46:02;99900.0;;;12.222222222222221;unknown
64862;BME280;62652;42.274;-71.436;2023-03-24T03:47:01;99890.0;;;12.222222222222221;unknown
64862;BME280;62652;42.274;-71.436;2023-03-24T03:48:01;99890.0;;;12.111111111111109;unknown
64862;BME280;62652;42.274;-71.436;2023-03-24T03:49:01;99890.0;;;12.222222222222221;unknown
64862;BME280;62652;42.274;-71.436;2023-03-24T03:50:01;99890.0;;;12.222222222222221;unknown
64862;BME280;62652;42.274;-71.436;2023-03-24T03:51:01;99890.0;;;12.222222222222221;unknown
64862;BME280;62652;42.274;-71.436;2023-03-24T03:52:02;99880.0;;;12.222222222222221;unknown
64862;BME280;62652;42.274;-71.436;2023-03-24T03:53:00;99870.0;;;12.222222222222221;unknown
64862;BME280;62652;42.274;-71.436;2023-03-24T03:54:04;99880.0;;;12.111111111111109;unknown
64862;BME280;62652;42.274;-71.436;2023-03-24T03:55:01;99880.0;;;12.111111111111109;unknown
64862;BME280;62652;42.274;-71.436;2023-03-24T03:56:01;99890.0;;;12.111111111111109;unknown
64862;BME280;62652;42.274;-71.436;2023-03-24T03:57:01;99880.0;;;12.111111111111109;unknown
64862;BME280;62652;42.274;-71.436;2023-03-24T03:58:01;99900.0;;;12.0;unknown
64862;BME280;62652;42.274;-71.436;2023-03-24T03:59:01;99890.0;;;12.0;unknown
64862;BME280;62652;42.274;-71.436;2023-03-24T04:00:01;99910.0;;;12.0;unknown
64862;BME280;62652;42.274;-71.436;2023-03-24T04:01:02;99900.0;;;12.0;unknown
64862;BME280;62652;42.274;-71.436;2023-03-24T04:02:08;99910.0;;;12.0;unknown
64862;BME280;62652;42.274;-71.436;2023-03-24T04:03:15;99900.0;;;12.0;unknown
64862;BME280;62652;42.274;-71.436;2023-03-24T04:04:11;99910.0;;;11.88888888888889;unknown
64862;BME280;62652;42.274;-71.436;2023-03-24T04:05:11;99900.0;;;11.88888888888889;unknown
64862;BME280;62652;42.274;-71.436;2023-03-24T04:06:05;99900.0;;;11.88888888888889;unknown
64862;BME280;62652;42.274;-71.436;2023-03-24T04:07:08;99910.0;;;11.88888888888889;unknown
64862;BME280;62652;42.274;-71.436;2023-03-24T04:08:13;99910.0;;;12.0;unknown
64862;BME280;62652;42.274;-71.436;2023-03-24T04:09:06;99900.0;;;12.0;unknown
64862;BME280;62652;42.274;-71.436;2023-03-24T04:10:10;99890.0;;;11.88888888888889;unknown
64862;BME280;62652;42.274;-71.436;2023-03-24T04:11:19;99900.0;;;12.0;unknown
64862;BME280;62652;42.274;-71.436;2023-03-24T04:12:13;99890.0;;;11.88888888888889;unknown
64862;BME280;62652;42.274;-71.436;2023-03-24T04:13:07;99900.0;;;11.88888888888889;unknown
64862;BME280;62652;42.274;-71.436;2023-03-24T04:15:09;99900.0;;;11.88888888888889;unknown
64862;BME280;62652;42.274;-71.436;2023-03-24T04:16:08;99900.0;;;11.88888888888889;unknown
64862;BME280;62652;42.274;-71.436;2023-03-24T04:17:05;99900.0;;;11.777777777777779;unknown
64862;BME280;62652;42.274;-71.436;2023-03-24T04:18:13;99900.0;;;11.88888888888889;unknown
64862;BME280;62652;42.274;-71.436;2023-03-24T04:19:10;99900.0;;;11.777777777777779;unknown
64862;BME280;62652;42.274;-71.436;2023-03-24T04:20:07;99900.0;;;11.777777777777779;unknown
64862;BME280;62652;42.274;-71.436;2023-03-24T04:21:09;99900.0;;;11.777777777777779;unknown
64862;BME280;62652;42.274;-71.436;2023-03-24T04:22:09;99900.0;;;11.777777777777779;unknown
64862;BME280;62652;42.274;-71.436;2023-03-24T04:23:04;99910.0;;;11.777777777777779;unknown
64862;BME280;62652;42.274;-71.436;2023-03-24T04:24:14;99920.0;;;11.777777777777779;unknown
64862;BME280;62652;42.274;-71.436;2023-03-24T04:25:08;99900.0;;;11.777777777777779;unknown
64862;BME280;62652;42.274;-71.436;2023-03-24T04:26:07;99910.0;;;11.777777777777779;unknown
64862;BME280;62652;42.274;-71.436;2023-03-24T04:27:06;99910.0;;;11.777777777777779;unknown
64862;BME280;62652;42.274;-71.436;2023-03-24T04:28:08;99900.0;;;11.777777777777779;unknown
64862;BME280;62652;42.274;-71.436;2023-03-24T04:29:07;99910.0;;;11.722222222222221;unknown
64862;BME280;62652;42.274;-71.436;2023-03-24T04:30:04;99910.0;;;11.722222222222221;unknown
64862;BME280;62652;42.274;-71.436;2023-03-24T04:31:05;99920.0;;;11.722222222222221;unknown
64862;BME280;62652;42.274;-71.436;2023-03-24T04:32:04;99920.0;;;11.61111111111111;unknown
64862;BME280;62652;42.274;-71.436;2023-03-24T04:33:03;99920.0;;;11.722222222222221;unknown
64862;BME280;62652;42.274;-71.436;2023-03-24T04:34:03;99920.0;;;11.61111111111111;unknown